Time;durP1;ratioP1;P1;durP2;ratioP2;P2;SDS_P1;SDS_P2;PMS_P1;PMS_P2;Temp;Humidity;BMP_temperature;BMP_pressure;BME280_temperature;BME280_humidity;BME280_pressure;Samples;Min_cycle;Max_cycle;Signal;HPM_P1;HPM_P2
2023/03/10 00:00:42;;;;;;;;;;;10.40;87.50;;;;;;5136439;27;19986;-92
2023/03/10 00:03:07;;;;;;;;;;;10.40;87.60;;;;;;5136405;27;20022;-90
2023/03/10 00:05:33;;;;;;;;;;;10.30;87.40;;;;;;5136488;27;19984;-91
2023/03/10 00:07:59;;;;;;;;;;;10.30;87.10;;;;;;5136456;27;19984;-91
2023/03/10 00:10:24;;;;;;;;;;;10.20;86.90;;;;;;5136466;27;20294;-91
2023/03/10 00:12:50;;;;;;;;;;;10.20;86.70;;;;;;5136384;27;20306;-91
2023/03/10 00:15:15;;;;;;;;;;;10.20;86.70;;;;;;5136315;27;20034;-91
2023/03/10 00:17:41;;;;;;;;;;;10.10;86.50;;;;;;5136284;27;19935;-91
2023/03/10 00:20:10;;;;;;;;;;;10.00;86.10;;;;;;5136185;27;19942;-91
2023/03/10 00:22:36;;;;;;;;;;;9.90;86.00;;;;;;5135889;27;19943;-91
2023/03/10 00:25:02;;;;;;;;;;;9.80;86.30;;;;;;5136147;27;20539;-91
2023/03/10 00:27:27;;;;;;;;;;;9.80;86.50;;;;;;5136094;27;19988;-91
2023/03/10 00:29:53;;;;;;;;;;;9.70;87.00;;;;;;5135417;27;19944;-91
2023/03/10 00:32:18;;;;;;;;;;;9.60;87.20;;;;;;5136004;27;20422;-91
2023/03/10 00:34:44;;;;;;;;;;;9.70;87.30;;;;;;5135878;27;19944;-91
2023/03/10 00:37:09;;;;;;;;;;;9.70;87.50;;;;;;5135907;27;20032;-91
2023/03/10 00:39:35;;;;;;;;;;;9.70;87.50;;;;;;5135797;27;19984;-90
2023/03/10 00:42:00;;;;;;;;;;;9.70;87.00;;;;;;5135691;27;20075;-91
2023/03/10 00:44:27;;;;;;;;;;;9.60;86.50;;;;;;5135711;27;19981;-92
2023/03/10 00:46:53;;;;;;;;;;;9.60;87.00;;;;;;5135634;27;20004;-91
2023/03/10 00:49:18;;;;;;;;;;;9.50;87.70;;;;;;5135663;27;20390;-91
2023/03/10 00:51:44;;;;;;;;;;;9.40;88.00;;;;;;5135259;27;20044;-90
2023/03/10 00:54:09;;;;;;;;;;;9.40;88.50;;;;;;5135743;27;20019;-91
2023/03/10 00:56:35;;;;;;;;;;;9.30;89.40;;;;;;5135475;27;20464;-92
2023/03/10 00:59:01;;;;;;;;;;;9.40;89.90;;;;;;5135526;27;19934;-91
2023/03/10 01:01:31;;;;;;;;;;;9.50;90.20;;;;;;5116785;27;20437;-91
2023/03/10 01:03:59;;;;;;;;;;;9.70;90.10;;;;;;5135279;27;20004;-91
2023/03/10 01:06:24;;;;;;;;;;;9.70;89.80;;;;;;5135308;27;19932;-91
2023/03/10 01:08:50;;;;;;;;;;;9.70;89.50;;;;;;5135259;27;20396;-91
2023/03/10 01:11:17;;;;;;;;;;;9.80;89.30;;;;;;5135225;27;19936;-90
2023/03/10 01:13:43;;;;;;;;;;;9.70;89.10;;;;;;5135120;27;19940;-91
2023/03/10 01:16:08;;;;;;;;;;;9.80;89.00;;;;;;5116677;27;19990;-91
2023/03/10 01:18:34;;;;;;;;;;;9.80;88.50;;;;;;5135079;27;19942;-92
2023/03/10 01:21:00;;;;;;;;;;;9.70;88.10;;;;;;5134674;27;20449;-90
2023/03/10 01:23:26;;;;;;;;;;;9.70;88.20;;;;;;5135581;27;20384;-90
2023/03/10 01:25:51;;;;;;;;;;;9.60;88.10;;;;;;5135196;27;19937;-90
2023/03/10 01:28:17;;;;;;;;;;;9.70;88.20;;;;;;5134851;27;19964;-91
2023/03/10 01:30:43;;;;;;;;;;;9.70;88.30;;;;;;5134748;27;20028;-91
2023/03/10 01:33:09;;;;;;;;;;;9.60;88.40;;;;;;5134779;27;19989;-91
2023/03/10 01:35:35;;;;;;;;;;;9.60;88.50;;;;;;5134710;27;19941;-90
2023/03/10 01:38:01;;;;;;;;;;;9.50;88.60;;;;;;5134722;27;20032;-91
2023/03/10 01:40:27;;;;;;;;;;;9.50;88.80;;;;;;5133752;27;20396;-91
2023/03/10 01:43:12;;;;;;;;;;;9.50;89.00;;;;;;5134569;27;19939;-91
2023/03/10 01:45:38;;;;;;;;;;;9.40;88.80;;;;;;5134397;27;20032;-91
2023/03/10 01:48:03;;;;;;;;;;;9.40;88.50;;;;;;5134537;27;20028;-90
2023/03/10 01:50:29;;;;;;;;;;;9.30;88.00;;;;;;5134216;27;19936;-91
2023/03/10 01:52:57;;;;;;;;;;;9.20;87.70;;;;;;5134400;27;20549;-90
2023/03/10 01:55:27;;;;;;;;;;;8.90;86.90;;;;;;5134691;27;19977;-91
2023/03/10 01:57:54;;;;;;;;;;;8.70;87.10;;;;;;5134120;27;20005;-91
2023/03/10 02:00:19;;;;;;;;;;;8.90;88.60;;;;;;5133996;27;19960;-91
2023/03/10 02:02:57;;;;;;;;;;;9.00;89.60;;;;;;5134033;27;20058;-90
2023/03/10 02:05:23;;;;;;;;;;;9.10;90.10;;;;;;5134221;27;19944;-90
2023/03/10 02:07:49;;;;;;;;;;;9.30;90.20;;;;;;5134133;27;20317;-91
2023/03/10 02:10:15;;;;;;;;;;;9.30;90.10;;;;;;5134203;27;20031;-92
2023/03/10 02:12:42;;;;;;;;;;;9.40;90.00;;;;;;5134147;27;20309;-91
2023/03/10 02:15:09;;;;;;;;;;;9.50;89.80;;;;;;5134103;27;19972;-90
2023/03/10 02:17:34;;;;;;;;;;;9.60;89.50;;;;;;5134085;27;19989;-92
2023/03/10 02:20:09;;;;;;;;;;;9.70;88.90;;;;;;5134309;27;19942;-90
2023/03/10 02:22:35;;;;;;;;;;;9.80;87.90;;;;;;5133264;28;20474;-90
2023/03/10 02:25:04;;;;;;;;;;;9.80;87.90;;;;;;5134025;28;19940;-90
2023/03/10 02:27:32;;;;;;;;;;;9.90;87.70;;;;;;5133644;28;19965;-90
2023/03/10 02:29:59;;;;;;;;;;;10.00;87.10;;;;;;5133998;28;19942;-91
2023/03/10 02:32:25;;;;;;;;;;;10.00;86.70;;;;;;5133891;28;20394;-91
2023/03/10 02:34:51;;;;;;;;;;;10.00;86.70;;;;;;5133951;28;19942;-91
2023/03/10 02:37:18;;;;;;;;;;;10.00;86.60;;;;;;5115481;28;19942;-90
2023/03/10 02:39:43;;;;;;;;;;;10.00;87.00;;;;;;5133931;28;20018;-91
2023/03/10 02:42:10;;;;;;;;;;;10.00;87.30;;;;;;5133835;28;20054;-91
2023/03/10 02:44:36;;;;;;;;;;;10.00;87.10;;;;;;5133813;28;20392;-91
2023/03/10 02:47:02;;;;;;;;;;;10.00;87.10;;;;;;5133850;28;20123;-90
2023/03/10 02:49:28;;;;;;;;;;;9.90;87.00;;;;;;5133787;28;20134;-91
2023/03/10 02:51:54;;;;;;;;;;;10.00;86.90;;;;;;5134454;27;19943;-91
2023/03/10 02:54:20;;;;;;;;;;;9.90;86.90;;;;;;5122120;27;19979;-90
2023/03/10 02:56:45;;;;;;;;;;;9.90;86.90;;;;;;5117254;28;20448;-90
2023/03/10 02:59:11;;;;;;;;;;;9.80;86.90;;;;;;5120766;27;20191;-90
2023/03/10 03:01:36;;;;;;;;;;;9.80;87.10;;;;;;5119149;27;19991;-90
2023/03/10 03:04:02;;;;;;;;;;;9.80;87.40;;;;;;5137569;27;19977;-92
2023/03/10 03:06:28;;;;;;;;;;;9.90;87.40;;;;;;5137634;27;19939;-91
2023/03/10 03:08:53;;;;;;;;;;;10.00;86.90;;;;;;5119186;27;19937;-91
2023/03/10 03:11:19;;;;;;;;;;;10.10;86.50;;;;;;5137603;27;20324;-91
2023/03/10 03:13:44;;;;;;;;;;;10.20;86.50;;;;;;5137517;27;20390;-91
2023/03/10 03:16:10;;;;;;;;;;;10.20;86.60;;;;;;5137468;27;19939;-90
2023/03/10 03:18:36;;;;;;;;;;;10.10;86.60;;;;;;5137455;27;19937;-90
2023/03/10 03:21:06;;;;;;;;;;;10.00;86.80;;;;;;5136884;27;19978;-92
2023/03/10 03:23:32;;;;;;;;;;;9.90;87.10;;;;;;5137106;27;19975;-91
2023/03/10 03:25:57;;;;;;;;;;;9.90;87.30;;;;;;5137521;27;19981;-91
2023/03/10 03:28:23;;;;;;;;;;;10.10;87.30;;;;;;5137236;27;19942;-90
2023/03/10 03:30:48;;;;;;;;;;;10.30;86.40;;;;;;5137203;27;20421;-90
2023/03/10 03:33:14;;;;;;;;;;;10.40;86.10;;;;;;5137140;27;20412;-90
2023/03/10 03:35:41;;;;;;;;;;;10.30;86.00;;;;;;5137083;27;20384;-90
2023/03/10 03:38:07;;;;;;;;;;;10.40;86.60;;;;;;5137075;27;19944;-91
2023/03/10 03:40:34;;;;;;;;;;;10.30;86.60;;;;;;5136985;27;19959;-91
2023/03/10 03:42:59;;;;;;;;;;;10.20;86.70;;;;;;5136983;27;19943;-91
2023/03/10 03:45:26;;;;;;;;;;;10.20;86.70;;;;;;5136863;27;19934;-91
2023/03/10 03:47:51;;;;;;;;;;;10.10;86.90;;;;;;5136948;27;19933;-91
2023/03/10 03:50:18;;;;;;;;;;;10.10;87.00;;;;;;5136853;27;19945;-90
2023/03/10 03:52:44;;;;;;;;;;;10.00;87.20;;;;;;5136483;27;19960;-91
2023/03/10 03:55:10;;;;;;;;;;;10.00;87.40;;;;;;5136999;27;19952;-91
2023/03/10 03:57:35;;;;;;;;;;;10.00;87.50;;;;;;5136742;27;20340;-90
2023/03/10 04:00:06;;;;;;;;;;;10.00;87.40;;;;;;5136559;27;19936;-92
2023/03/10 04:02:31;;;;;;;;;;;10.00;87.50;;;;;;5136502;27;19947;-91
2023/03/10 04:04:57;;;;;;;;;;;10.10;88.40;;;;;;5135521;27;19969;-91
2023/03/10 04:07:22;;;;;;;;;;;10.10;88.60;;;;;;5136554;27;19939;-91
2023/03/10 04:09:48;;;;;;;;;;;10.10;89.00;;;;;;5136498;27;19976;-91
2023/03/10 04:12:13;;;;;;;;;;;10.10;89.20;;;;;;5136018;27;19943;-90
2023/03/10 04:14:39;;;;;;;;;;;10.20;89.20;;;;;;5136364;27;19942;-90
2023/03/10 04:17:04;;;;;;;;;;;10.20;89.10;;;;;;5136647;27;19936;-90
2023/03/10 04:19:30;;;;;;;;;;;10.20;88.00;;;;;;5136321;27;19943;-90
2023/03/10 04:21:56;;;;;;;;;;;10.10;87.60;;;;;;5136143;27;19961;-90
2023/03/10 04:24:21;;;;;;;;;;;10.00;88.60;;;;;;5136244;27;19972;-90
2023/03/10 04:26:47;;;;;;;;;;;9.90;89.10;;;;;;5136393;27;20023;-91
2023/03/10 04:29:12;;;;;;;;;;;9.90;89.00;;;;;;5136101;27;19974;-90
2023/03/10 04:31:38;;;;;;;;;;;9.90;89.00;;;;;;5136007;27;19976;-91
2023/03/10 04:34:03;;;;;;;;;;;9.90;89.10;;;;;;5135992;27;19937;-90
2023/03/10 04:36:29;;;;;;;;;;;10.00;89.10;;;;;;5135978;27;19947;-91
2023/03/10 04:38:54;;;;;;;;;;;10.10;89.00;;;;;;5135882;27;20026;-91
2023/03/10 04:41:20;;;;;;;;;;;10.10;88.90;;;;;;5135746;27;20006;-91
2023/03/10 04:43:45;;;;;;;;;;;10.20;88.40;;;;;;5135363;27;19936;-91
2023/03/10 04:46:11;;;;;;;;;;;10.30;88.40;;;;;;5135763;27;20397;-91
2023/03/10 04:48:36;;;;;;;;;;;10.30;88.30;;;;;;5135597;27;19938;-91
2023/03/10 04:51:04;;;;;;;;;;;10.20;88.70;;;;;;5135591;27;19949;-91
2023/03/10 04:53:31;;;;;;;;;;;10.30;88.50;;;;;;5135523;27;20022;-91
2023/03/10 04:55:57;;;;;;;;;;;10.40;88.40;;;;;;5135493;27;19969;-90
2023/03/10 04:58:22;;;;;;;;;;;10.30;88.30;;;;;;5135696;27;19942;-91
2023/03/10 05:00:48;;;;;;;;;;;10.30;88.20;;;;;;5135263;27;19964;-91
2023/03/10 05:03:14;;;;;;;;;;;10.30;88.20;;;;;;5135200;27;20432;-91
2023/03/10 05:05:40;;;;;;;;;;;10.20;88.30;;;;;;5135400;27;20031;-91
2023/03/10 05:08:05;;;;;;;;;;;10.20;88.50;;;;;;5116908;27;19974;-91
2023/03/10 05:10:31;;;;;;;;;;;10.10;88.50;;;;;;5135258;27;19938;-90
2023/03/10 05:12:56;;;;;;;;;;;10.10;88.60;;;;;;5134573;27;20390;-91
2023/03/10 05:15:22;;;;;;;;;;;10.20;88.60;;;;;;5135180;27;20404;-90
2023/03/10 05:17:48;;;;;;;;;;;10.10;88.70;;;;;;5135167;27;19943;-91
2023/03/10 05:20:14;;;;;;;;;;;10.10;88.90;;;;;;5135036;27;19977;-91
2023/03/10 05:22:39;;;;;;;;;;;10.10;88.80;;;;;;5135048;27;19974;-90
2023/03/10 05:25:05;;;;;;;;;;;10.10;88.90;;;;;;5134990;27;19940;-90
2023/03/10 05:27:32;;;;;;;;;;;10.00;89.30;;;;;;5134861;27;19939;-91
2023/03/10 05:29:57;;;;;;;;;;;10.00;89.40;;;;;;5134900;27;19936;-91
2023/03/10 05:32:23;;;;;;;;;;;10.00;89.50;;;;;;5134822;27;20331;-89
2023/03/10 05:34:48;;;;;;;;;;;9.90;89.50;;;;;;5134819;27;20281;-89
2023/03/10 05:37:14;;;;;;;;;;;9.80;89.70;;;;;;5134758;27;19934;-90
2023/03/10 05:39:40;;;;;;;;;;;9.90;89.60;;;;;;5134720;27;19944;-90
2023/03/10 05:42:05;;;;;;;;;;;9.90;89.50;;;;;;5134631;27;19971;-89
2023/03/10 05:44:31;;;;;;;;;;;9.90;89.40;;;;;;5134494;27;19947;-89
2023/03/10 05:46:56;;;;;;;;;;;9.90;89.30;;;;;;5116135;27;20459;-89
2023/03/10 05:49:22;;;;;;;;;;;9.90;89.20;;;;;;5134842;27;19964;-89
2023/03/10 05:51:47;;;;;;;;;;;10.00;89.00;;;;;;5134320;27;19937;-90
2023/03/10 05:54:13;;;;;;;;;;;10.00;89.00;;;;;;5134370;27;19954;-90
2023/03/10 05:56:39;;;;;;;;;;;9.90;89.20;;;;;;5134194;27;19938;-90
2023/03/10 05:59:05;;;;;;;;;;;9.90;89.40;;;;;;5134296;27;19943;-90
2023/03/10 06:01:31;;;;;;;;;;;9.80;89.50;;;;;;5134049;27;19963;-89
2023/03/10 06:03:57;;;;;;;;;;;9.80;89.70;;;;;;5132962;27;19968;-90
2023/03/10 06:06:22;;;;;;;;;;;9.80;89.80;;;;;;5114670;27;20134;-89
2023/03/10 06:08:48;;;;;;;;;;;9.90;89.70;;;;;;5133813;27;19969;-89
2023/03/10 06:11:13;;;;;;;;;;;9.90;89.60;;;;;;5133903;27;19951;-90
2023/03/10 06:13:39;;;;;;;;;;;10.00;89.10;;;;;;5115128;28;19946;-90
2023/03/10 06:16:05;;;;;;;;;;;10.10;88.80;;;;;;5133299;27;19948;-90
2023/03/10 06:18:31;;;;;;;;;;;10.00;88.70;;;;;;5115762;28;20355;-89
2023/03/10 06:20:57;;;;;;;;;;;10.10;88.80;;;;;;5109115;28;19974;-90
2023/03/10 06:23:23;;;;;;;;;;;10.10;88.80;;;;;;5133195;27;20390;-90
2023/03/10 06:25:56;;;;;;;;;;;10.10;88.90;;;;;;5130445;28;20313;-89
2023/03/10 06:28:21;;;;;;;;;;;10.20;88.90;;;;;;5105786;27;20318;-90
2023/03/10 06:30:52;;;;;;;;;;;10.20;88.90;;;;;;5136341;27;19940;-89
2023/03/10 06:33:18;;;;;;;;;;;10.30;88.90;;;;;;5138671;27;19937;-89
2023/03/10 06:35:43;;;;;;;;;;;10.30;89.20;;;;;;5137470;27;19970;-90
2023/03/10 06:38:09;;;;;;;;;;;10.30;89.60;;;;;;5120922;27;19974;-89
2023/03/10 06:40:34;;;;;;;;;;;10.30;89.50;;;;;;5140082;27;19968;-90
2023/03/10 06:43:00;;;;;;;;;;;10.40;89.40;;;;;;5138035;27;19940;-89
2023/03/10 06:45:25;;;;;;;;;;;10.40;89.40;;;;;;5136354;27;19948;-89
2023/03/10 06:47:51;;;;;;;;;;;10.40;89.30;;;;;;5138834;27;19945;-89
2023/03/10 06:50:16;;;;;;;;;;;10.40;89.30;;;;;;5137646;27;19942;-89
2023/03/10 06:52:42;;;;;;;;;;;10.40;89.30;;;;;;5119784;27;20003;-89
2023/03/10 06:55:08;;;;;;;;;;;10.40;89.40;;;;;;5138038;27;19949;-90
2023/03/10 06:57:33;;;;;;;;;;;10.40;89.30;;;;;;5137426;27;19949;-90
2023/03/10 06:59:59;;;;;;;;;;;10.40;89.30;;;;;;5116128;27;19953;-90
2023/03/10 07:02:24;;;;;;;;;;;10.40;89.40;;;;;;5132222;27;19965;-90
2023/03/10 07:04:50;;;;;;;;;;;10.30;89.50;;;;;;5098633;22;19973;-89
2023/03/10 07:07:16;;;;;;;;;;;10.30;88.90;;;;;;5096189;28;19996;-89
2023/03/10 07:09:41;;;;;;;;;;;10.30;89.20;;;;;;5091527;28;20000;-89
2023/03/10 07:12:07;;;;;;;;;;;10.30;89.20;;;;;;5084930;28;19947;-89
2023/03/10 07:14:32;;;;;;;;;;;10.40;89.50;;;;;;5087425;28;19945;-89
2023/03/10 07:16:58;;;;;;;;;;;10.40;89.70;;;;;;5093454;28;19973;-89
2023/03/10 07:19:23;;;;;;;;;;;10.30;89.90;;;;;;5091346;28;20324;-90
2023/03/10 07:21:49;;;;;;;;;;;10.40;89.90;;;;;;5082711;28;19971;-89
2023/03/10 07:24:15;;;;;;;;;;;10.60;89.70;;;;;;5071438;28;19996;-90
2023/03/10 07:26:40;;;;;;;;;;;10.60;89.30;;;;;;5089376;28;19940;-90
2023/03/10 07:29:06;;;;;;;;;;;10.80;89.50;;;;;;5092998;28;19994;-89
2023/03/10 07:31:33;;;;;;;;;;;11.10;89.20;;;;;;5088318;28;19949;-89
2023/03/10 07:34:00;;;;;;;;;;;11.30;88.80;;;;;;5086942;28;19949;-89
2023/03/10 07:36:27;;;;;;;;;;;11.50;88.60;;;;;;5090069;28;19941;-90
2023/03/10 07:38:53;;;;;;;;;;;11.70;88.20;;;;;;5083985;28;19965;-89
2023/03/10 07:41:19;;;;;;;;;;;11.90;87.30;;;;;;5085875;28;20010;-90
2023/03/10 07:43:45;;;;;;;;;;;11.90;86.70;;;;;;5089147;28;19946;-90
2023/03/10 07:46:11;;;;;;;;;;;11.90;86.70;;;;;;5068898;28;19996;-90
2023/03/10 07:48:37;;;;;;;;;;;11.90;86.60;;;;;;5087674;28;19975;-89
2023/03/10 07:51:02;;;;;;;;;;;12.00;85.30;;;;;;5068640;28;19992;-89
2023/03/10 07:53:28;;;;;;;;;;;11.90;85.00;;;;;;5084870;28;20027;-89
2023/03/10 07:55:53;;;;;;;;;;;11.90;85.40;;;;;;5075658;28;19946;-89
2023/03/10 07:58:19;;;;;;;;;;;11.80;85.60;;;;;;5050410;28;19942;-89
2023/03/10 08:00:45;;;;;;;;;;;11.90;86.10;;;;;;5070631;28;19969;-89
2023/03/10 08:03:10;;;;;;;;;;;11.80;86.60;;;;;;5067816;28;19962;-90
2023/03/10 08:05:42;;;;;;;;;;;12.00;86.60;;;;;;5068820;28;19949;-90
2023/03/10 08:08:07;;;;;;;;;;;12.10;86.40;;;;;;5072329;28;19952;-89
2023/03/10 08:10:33;;;;;;;;;;;12.50;85.60;;;;;;5072937;28;20466;-89
2023/03/10 08:12:58;;;;;;;;;;;12.50;84.50;;;;;;5062050;28;19948;-90
2023/03/10 08:15:25;;;;;;;;;;;12.70;84.40;;;;;;5068309;28;19963;-90
2023/03/10 08:17:51;;;;;;;;;;;12.90;83.80;;;;;;5080701;28;20029;-90
2023/03/10 08:20:17;;;;;;;;;;;13.00;83.80;;;;;;5065133;28;20041;-90
2023/03/10 08:22:42;;;;;;;;;;;13.10;83.80;;;;;;5062078;28;20278;-90
2023/03/10 08:25:08;;;;;;;;;;;13.10;84.10;;;;;;5065749;28;19955;-90
2023/03/10 08:27:34;;;;;;;;;;;13.20;84.30;;;;;;5060630;28;19947;-89
2023/03/10 08:29:59;;;;;;;;;;;13.30;83.20;;;;;;5060510;28;20348;-89
2023/03/10 08:32:25;;;;;;;;;;;13.30;82.60;;;;;;5066960;28;19938;-90
2023/03/10 08:34:51;;;;;;;;;;;13.40;82.50;;;;;;5059767;28;19949;-90
2023/03/10 08:37:16;;;;;;;;;;;13.50;81.80;;;;;;5073531;28;20066;-90
2023/03/10 08:39:42;;;;;;;;;;;13.60;81.40;;;;;;5057120;28;19960;-90
2023/03/10 08:42:11;;;;;;;;;;;13.60;81.90;;;;;;5064198;28;19961;-90
2023/03/10 08:44:37;;;;;;;;;;;13.60;82.30;;;;;;5060438;28;19963;-91
2023/03/10 08:47:03;;;;;;;;;;;13.80;82.40;;;;;;5057234;28;19943;-90
2023/03/10 08:49:28;;;;;;;;;;;13.90;81.80;;;;;;5066865;28;19936;-90
2023/03/10 08:51:54;;;;;;;;;;;14.00;81.10;;;;;;5067765;28;19943;-90
2023/03/10 08:54:20;;;;;;;;;;;14.20;80.70;;;;;;5076922;28;19979;-89
2023/03/10 08:56:46;;;;;;;;;;;14.30;80.10;;;;;;5062695;28;19942;-90
2023/03/10 08:59:11;;;;;;;;;;;14.40;80.10;;;;;;5058210;28;19971;-90
2023/03/10 09:01:37;;;;;;;;;;;14.60;79.50;;;;;;5070733;28;20006;-89
2023/03/10 09:04:04;;;;;;;;;;;14.70;79.20;;;;;;5071886;28;20022;-90
2023/03/10 09:06:29;;;;;;;;;;;14.80;79.20;;;;;;5044255;28;19955;-90
2023/03/10 09:08:55;;;;;;;;;;;14.90;78.90;;;;;;5050660;28;19945;-90
2023/03/10 09:11:24;;;;;;;;;;;15.10;78.60;;;;;;5054096;28;19990;-90
2023/03/10 09:13:50;;;;;;;;;;;15.20;77.60;;;;;;5063571;28;19941;-89
2023/03/10 09:16:16;;;;;;;;;;;15.30;76.80;;;;;;5065279;28;19995;-89
2023/03/10 09:18:42;;;;;;;;;;;15.30;77.00;;;;;;5065252;28;19984;-89
2023/03/10 09:21:08;;;;;;;;;;;15.30;78.10;;;;;;5059031;28;19966;-89
2023/03/10 09:23:33;;;;;;;;;;;15.30;78.50;;;;;;5062675;28;20407;-90
2023/03/10 09:25:59;;;;;;;;;;;15.30;79.00;;;;;;5042361;28;19944;-91
2023/03/10 09:28:24;;;;;;;;;;;15.30;79.10;;;;;;5061518;28;19947;-91
2023/03/10 09:30:50;;;;;;;;;;;15.40;79.00;;;;;;5060815;28;20009;-91
2023/03/10 09:33:17;;;;;;;;;;;15.50;78.00;;;;;;5060878;28;20417;-90
2023/03/10 09:35:43;;;;;;;;;;;15.60;77.20;;;;;;5057822;28;19952;-91
2023/03/10 09:38:08;;;;;;;;;;;15.90;76.80;;;;;;5072064;28;20038;-91
2023/03/10 09:40:35;;;;;;;;;;;16.00;75.60;;;;;;5033912;28;20047;-90
2023/03/10 09:43:05;;;;;;;;;;;16.10;74.90;;;;;;5070628;28;19966;-90
2023/03/10 09:45:38;;;;;;;;;;;16.10;75.40;;;;;;5062046;28;19955;-90
2023/03/10 09:48:03;;;;;;;;;;;16.00;75.20;;;;;;5058973;28;19956;-90
2023/03/10 09:50:29;;;;;;;;;;;16.20;75.00;;;;;;5062434;28;19951;-90
2023/03/10 09:52:54;;;;;;;;;;;16.20;75.10;;;;;;5064245;28;20051;-90
2023/03/10 09:55:21;;;;;;;;;;;16.30;75.80;;;;;;5060284;28;20600;-90
2023/03/10 09:57:48;;;;;;;;;;;16.30;74.80;;;;;;5069801;28;20000;-90
2023/03/10 10:00:18;;;;;;;;;;;16.30;73.30;;;;;;5057433;28;20001;-90
2023/03/10 10:02:45;;;;;;;;;;;16.40;73.80;;;;;;5064780;28;20428;-91
2023/03/10 10:05:18;;;;;;;;;;;16.40;74.60;;;;;;5067789;28;19946;-91
2023/03/10 10:07:53;;;;;;;;;;;16.60;75.10;;;;;;5048957;28;19980;-91
2023/03/10 10:10:23;;;;;;;;;;;16.70;74.20;;;;;;5058011;28;19951;-89
2023/03/10 10:12:51;;;;;;;;;;;16.80;72.40;;;;;;5071731;28;19954;-88
2023/03/10 10:15:21;;;;;;;;;;;16.60;72.00;;;;;;5068317;28;21689;-90
2023/03/10 10:17:49;;;;;;;;;;;16.40;73.10;;;;;;5057764;28;19944;-88
2023/03/10 10:20:18;;;;;;;;;;;16.40;73.40;;;;;;5055747;28;19995;-89
2023/03/10 10:22:44;;;;;;;;;;;16.50;74.60;;;;;;5069561;28;20407;-90
2023/03/10 10:25:15;;;;;;;;;;;16.70;75.50;;;;;;5071879;28;19950;-90
2023/03/10 10:27:41;;;;;;;;;;;17.00;71.80;;;;;;5059953;28;19950;-91
2023/03/10 10:30:28;;;;;;;;;;;17.30;70.90;;;;;;5068021;28;19955;-90
2023/03/10 10:33:04;;;;;;;;;;;17.40;71.50;;;;;;5043909;28;19945;-90
2023/03/10 10:35:35;;;;;;;;;;;17.60;70.70;;;;;;5060257;28;20207;-91
2023/03/10 10:38:04;;;;;;;;;;;17.80;70.50;;;;;;5043005;28;19947;-90
2023/03/10 10:40:35;;;;;;;;;;;18.20;66.90;;;;;;5060768;28;19958;-90
2023/03/10 10:43:04;;;;;;;;;;;18.20;68.70;;;;;;5067755;28;20040;-90
2023/03/10 10:45:36;;;;;;;;;;;18.00;68.90;;;;;;5066905;28;19954;-91
2023/03/10 10:48:02;;;;;;;;;;;18.20;68.20;;;;;;5067458;28;19936;-90
2023/03/10 10:50:34;;;;;;;;;;;18.30;66.30;;;;;;5040122;28;19942;-91
2023/03/10 10:53:15;;;;;;;;;;;18.40;66.20;;;;;;5066470;28;19969;-90
2023/03/10 10:55:42;;;;;;;;;;;18.20;66.70;;;;;;5068673;28;19942;-89
2023/03/10 10:58:27;;;;;;;;;;;17.90;66.90;;;;;;5056298;28;19940;-90
2023/03/10 11:00:57;;;;;;;;;;;17.90;68.20;;;;;;5065306;28;19995;-89
2023/03/10 11:03:23;;;;;;;;;;;17.80;66.30;;;;;;5060109;28;20000;-90
2023/03/10 11:05:48;;;;;;;;;;;17.90;66.00;;;;;;5038909;28;19949;-90
2023/03/10 11:08:26;;;;;;;;;;;17.80;66.30;;;;;;5037269;28;20056;-90
2023/03/10 11:11:03;;;;;;;;;;;17.80;67.00;;;;;;5039660;28;20411;-90
2023/03/10 11:13:45;;;;;;;;;;;17.90;68.10;;;;;;5040511;28;20400;-90
2023/03/10 11:16:13;;;;;;;;;;;18.00;65.60;;;;;;5042784;28;19967;-90
2023/03/10 11:18:44;;;;;;;;;;;17.90;66.80;;;;;;5043835;28;19949;-89
2023/03/10 11:21:22;;;;;;;;;;;18.00;67.00;;;;;;5055768;28;19982;-89
2023/03/10 11:23:58;;;;;;;;;;;17.90;66.60;;;;;;5019276;28;19994;-89
2023/03/10 11:26:43;;;;;;;;;;;18.00;66.40;;;;;;5036164;28;19943;-89
2023/03/10 11:29:15;;;;;;;;;;;17.80;65.80;;;;;;5042761;28;19954;-90
2023/03/10 11:31:47;;;;;;;;;;;17.80;67.40;;;;;;5037850;28;19942;-90
2023/03/10 11:34:15;;;;;;;;;;;18.10;67.60;;;;;;5035984;28;20383;-90
2023/03/10 11:36:46;;;;;;;;;;;18.60;67.80;;;;;;5038169;28;19946;-90
2023/03/10 11:39:33;;;;;;;;;;;18.90;64.50;;;;;;5036225;28;19938;-91
2023/03/10 11:42:09;;;;;;;;;;;19.00;63.40;;;;;;5037566;28;20003;-90
2023/03/10 11:44:40;;;;;;;;;;;19.10;64.40;;;;;;5053933;28;20422;-91
2023/03/10 11:47:11;;;;;;;;;;;19.50;62.90;;;;;;5055770;28;20502;-91
2023/03/10 11:49:38;;;;;;;;;;;19.70;60.90;;;;;;5055627;28;19985;-90
2023/03/10 11:52:16;;;;;;;;;;;20.00;60.80;;;;;;5051179;28;19951;-91
2023/03/10 11:54:46;;;;;;;;;;;20.20;61.50;;;;;;5052016;28;20054;-90
2023/03/10 11:57:14;;;;;;;;;;;19.90;60.00;;;;;;5055494;28;20451;-90
2023/03/10 11:59:46;;;;;;;;;;;19.90;60.80;;;;;;5051603;28;20410;-90
2023/03/10 12:02:20;;;;;;;;;;;19.60;61.10;;;;;;5037943;28;20071;-90
2023/03/10 12:05:05;;;;;;;;;;;19.30;61.20;;;;;;5049869;28;20030;-90
2023/03/10 12:07:35;;;;;;;;;;;19.50;61.30;;;;;;5072435;28;20042;-90
2023/03/10 12:10:12;;;;;;;;;;;19.70;61.30;;;;;;5075299;28;20407;-90
2023/03/10 12:12:39;;;;;;;;;;;19.60;61.80;;;;;;5069973;28;19939;-90
2023/03/10 12:15:11;;;;;;;;;;;19.30;61.40;;;;;;5073092;28;20338;-91
2023/03/10 12:17:38;;;;;;;;;;;19.40;61.20;;;;;;5075110;28;20005;-90
2023/03/10 12:20:10;;;;;;;;;;;19.60;60.50;;;;;;5066416;28;20000;-90
2023/03/10 12:22:39;;;;;;;;;;;19.90;60.50;;;;;;5043650;28;20311;-90
2023/03/10 12:25:25;;;;;;;;;;;20.40;58.80;;;;;;5074550;28;19948;-90
2023/03/10 12:28:09;;;;;;;;;;;20.30;58.90;;;;;;5064298;28;20394;-90
2023/03/10 12:30:46;;;;;;;;;;;20.60;58.20;;;;;;5058348;28;19952;-90
2023/03/10 12:33:33;;;;;;;;;;;20.80;57.90;;;;;;5065115;28;19977;-90
2023/03/10 12:36:11;;;;;;;;;;;21.50;55.30;;;;;;5070918;28;19954;-90
2023/03/10 12:38:39;;;;;;;;;;;22.20;55.20;;;;;;5056882;28;19955;-90
2023/03/10 12:41:05;;;;;;;;;;;23.30;50.40;;;;;;5044894;28;19966;-89
2023/03/10 12:43:45;;;;;;;;;;;22.90;47.60;;;;;;5057564;28;19953;-90
2023/03/10 12:46:13;;;;;;;;;;;23.10;48.60;;;;;;5067033;28;20016;-90
2023/03/10 12:48:42;;;;;;;;;;;22.90;48.30;;;;;;5069201;28;19947;-90
2023/03/10 12:51:10;;;;;;;;;;;22.80;49.00;;;;;;5072839;28;19953;-90
2023/03/10 12:53:48;;;;;;;;;;;22.90;49.00;;;;;;5045784;28;19965;-90
2023/03/10 12:56:14;;;;;;;;;;;22.80;48.80;;;;;;5064108;28;19953;-90
2023/03/10 12:58:46;;;;;;;;;;;22.80;49.40;;;;;;5067850;28;19946;-90
2023/03/10 13:01:13;;;;;;;;;;;23.70;49.40;;;;;;5062592;28;19966;-90
2023/03/10 13:03:47;;;;;;;;;;;23.90;47.40;;;;;;5064733;28;20457;-90
2023/03/10 13:06:12;;;;;;;;;;;24.00;47.30;;;;;;5042974;28;19942;-90
2023/03/10 13:08:38;;;;;;;;;;;23.70;47.50;;;;;;5049670;28;20330;-90
2023/03/10 13:11:05;;;;;;;;;;;23.10;48.60;;;;;;5046330;28;19943;-89
2023/03/10 13:13:32;;;;;;;;;;;22.60;51.60;;;;;;5044784;28;19975;-90
2023/03/10 13:15:59;;;;;;;;;;;22.70;51.20;;;;;;5046695;28;19951;-90
2023/03/10 13:18:25;;;;;;;;;;;22.30;50.50;;;;;;5032315;28;19948;-90
2023/03/10 13:20:50;;;;;;;;;;;22.60;50.60;;;;;;5050926;28;19956;-90
2023/03/10 13:23:21;;;;;;;;;;;22.10;50.30;;;;;;5022219;28;20035;-90
2023/03/10 13:25:51;;;;;;;;;;;21.80;51.70;;;;;;5046018;28;19979;-90
2023/03/10 13:28:16;;;;;;;;;;;22.00;51.50;;;;;;5043209;28;19953;-90
2023/03/10 13:30:43;;;;;;;;;;;22.30;51.70;;;;;;5042582;28;19946;-90
2023/03/10 13:33:17;;;;;;;;;;;22.90;50.70;;;;;;5049994;28;20027;-90
2023/03/10 13:35:43;;;;;;;;;;;22.90;50.20;;;;;;5026958;28;20322;-90
2023/03/10 13:38:16;;;;;;;;;;;22.80;47.40;;;;;;5049086;28;19937;-90
2023/03/10 13:40:43;;;;;;;;;;;22.90;48.70;;;;;;5043023;28;19962;-90
2023/03/10 13:43:41;;;;;;;;;;;22.50;48.30;;;;;;5050791;28;19955;-90
2023/03/10 13:46:17;;;;;;;;;;;22.80;47.10;;;;;;5009659;28;20047;-90
2023/03/10 13:48:44;;;;;;;;;;;23.00;47.70;;;;;;5043216;28;20243;-90
2023/03/10 13:51:16;;;;;;;;;;;23.50;46.50;;;;;;5041487;28;19951;-89
2023/03/10 13:53:42;;;;;;;;;;;23.20;46.20;;;;;;5051788;28;19970;-90
2023/03/10 13:56:28;;;;;;;;;;;23.10;46.90;;;;;;5052176;28;19947;-90
2023/03/10 13:58:54;;;;;;;;;;;23.40;47.10;;;;;;5050537;28;19980;-90
2023/03/10 14:01:24;;;;;;;;;;;23.80;45.50;;;;;;5044155;28;19959;-90
2023/03/10 14:03:51;;;;;;;;;;;23.30;47.00;;;;;;5058729;28;19977;-90
2023/03/10 14:06:17;;;;;;;;;;;23.20;46.40;;;;;;5070819;28;19985;-90
2023/03/10 14:08:42;;;;;;;;;;;23.00;46.20;;;;;;5063047;28;20422;-90
2023/03/10 14:11:44;;;;;;;;;;;22.70;45.90;;;;;;5062323;28;20065;-89
2023/03/10 14:14:10;;;;;;;;;;;22.10;46.00;;;;;;5019298;28;19951;-89
2023/03/10 14:16:53;;;;;;;;;;;21.40;47.90;;;;;;5057227;28;19946;-90
2023/03/10 14:19:36;;;;;;;;;;;22.00;47.70;;;;;;5061427;28;19945;-90
2023/03/10 14:22:02;;;;;;;;;;;22.30;47.70;;;;;;5065085;28;19991;-90
2023/03/10 14:24:27;;;;;;;;;;;22.50;45.80;;;;;;5056610;28;19995;-89